sensor_id;sensor_type;location;lat;lon;timestamp;P1;P2;P0
46094;PMS5003;31832;50.746;-2.716;2024-01-30T00:00:15;3;2;
46094;PMS5003;31832;50.746;-2.716;2024-01-30T00:02:40;2;2;
46094;PMS5003;31832;50.746;-2.716;2024-01-30T00:05:05;4;2;
46094;PMS5003;31832;50.746;-2.716;2024-01-30T00:07:30;3;3;
46094;PMS5003;31832;50.746;-2.716;2024-01-30T00:09:56;2;1;
46094;PMS5003;31832;50.746;-2.716;2024-01-30T00:12:21;1;0;
46094;PMS5003;31832;50.746;-2.716;2024-01-30T00:14:46;3;2;
46094;PMS5003;31832;50.746;-2.716;2024-01-30T00:17:12;3;2;
46094;PMS5003;31832;50.746;-2.716;2024-01-30T00:19:37;2;1;
46094;PMS5003;31832;50.746;-2.716;2024-01-30T00:22:02;3;2;
46094;PMS5003;31832;50.746;-2.716;2024-01-30T00:24:27;5;3;
46094;PMS5003;31832;50.746;-2.716;2024-01-30T00:26:53;3;2;
46094;PMS5003;31832;50.746;-2.716;2024-01-30T00:29:18;1;1;
46094;PMS5003;31832;50.746;-2.716;2024-01-30T00:31:43;1;1;
46094;PMS5003;31832;50.746;-2.716;2024-01-30T00:34:08;1;0;
46094;PMS5003;31832;50.746;-2.716;2024-01-30T00:36:33;1;1;
46094;PMS5003;31832;50.746;-2.716;2024-01-30T00:38:59;2;2;
46094;PMS5003;31832;50.746;-2.716;2024-01-30T00:41:23;2;2;
46094;PMS5003;31832;50.746;-2.716;2024-01-30T00:43:49;1;1;
46094;PMS5003;31832;50.746;-2.716;2024-01-30T00:46:14;1;1;
46094;PMS5003;31832;50.746;-2.716;2024-01-30T00:48:39;0;0;
46094;PMS5003;31832;50.746;-2.716;2024-01-30T00:51:04;2;0;
46094;PMS5003;31832;50.746;-2.716;2024-01-30T00:53:29;0;0;
46094;PMS5003;31832;50.746;-2.716;2024-01-30T00:55:55;0;0;
46094;PMS5003;31832;50.746;-2.716;2024-01-30T00:58:20;0;0;
46094;PMS5003;31832;50.746;-2.716;2024-01-30T01:00:45;1;1;
46094;PMS5003;31832;50.746;-2.716;2024-01-30T01:03:10;2;1;
46094;PMS5003;31832;50.746;-2.716;2024-01-30T01:05:35;1;0;
46094;PMS5003;31832;50.746;-2.716;2024-01-30T01:08:00;0;0;
46094;PMS5003;31832;50.746;-2.716;2024-01-30T01:10:26;1;1;
46094;PMS5003;31832;50.746;-2.716;2024-01-30T01:12:51;0;0;
46094;PMS5003;31832;50.746;-2.716;2024-01-30T01:15:16;0;0;
46094;PMS5003;31832;50.746;-2.716;2024-01-30T01:17:41;0;0;
46094;PMS5003;31832;50.746;-2.716;2024-01-30T01:20:08;0;0;
46094;PMS5003;31832;50.746;-2.716;2024-01-30T01:22:32;0;0;
46094;PMS5003;31832;50.746;-2.716;2024-01-30T01:24:57;0;0;
46094;PMS5003;31832;50.746;-2.716;2024-01-30T01:27:22;0;0;
46094;PMS5003;31832;50.746;-2.716;2024-01-30T01:29:47;0;0;
46094;PMS5003;31832;50.746;-2.716;2024-01-30T02:20:36;0;0;
46094;PMS5003;31832;50.746;-2.716;2024-01-30T02:23:01;1;1;
46094;PMS5003;31832;50.746;-2.716;2024-01-30T02:25:30;1;1;
46094;PMS5003;31832;50.746;-2.716;2024-01-30T02:27:52;1;1;
46094;PMS5003;31832;50.746;-2.716;2024-01-30T02:30:17;0;0;
46094;PMS5003;31832;50.746;-2.716;2024-01-30T02:32:42;0;0;
46094;PMS5003;31832;50.746;-2.716;2024-01-30T02:35:07;1;1;
46094;PMS5003;31832;50.746;-2.716;2024-01-30T02:37:32;2;1;
46094;PMS5003;31832;50.746;-2.716;2024-01-30T02:39:58;3;2;
46094;PMS5003;31832;50.746;-2.716;2024-01-30T02:42:23;1;1;
46094;PMS5003;31832;50.746;-2.716;2024-01-30T02:44:48;1;1;
46094;PMS5003;31832;50.746;-2.716;2024-01-30T02:47:13;0;0;
46094;PMS5003;31832;50.746;-2.716;2024-01-30T02:49:39;0;0;
46094;PMS5003;31832;50.746;-2.716;2024-01-30T02:52:04;0;0;
46094;PMS5003;31832;50.746;-2.716;2024-01-30T02:54:29;1;1;
46094;PMS5003;31832;50.746;-2.716;2024-01-30T02:56:54;0;0;
46094;PMS5003;31832;50.746;-2.716;2024-01-30T02:59:19;0;0;
46094;PMS5003;31832;50.746;-2.716;2024-01-30T03:01:44;0;0;
46094;PMS5003;31832;50.746;-2.716;2024-01-30T03:04:10;1;1;
46094;PMS5003;31832;50.746;-2.716;2024-01-30T03:06:35;0;0;
46094;PMS5003;31832;50.746;-2.716;2024-01-30T03:09:00;0;0;
46094;PMS5003;31832;50.746;-2.716;2024-01-30T03:11:25;1;0;
46094;PMS5003;31832;50.746;-2.716;2024-01-30T03:13:50;0;0;
46094;PMS5003;31832;50.746;-2.716;2024-01-30T03:16:16;2;0;
46094;PMS5003;31832;50.746;-2.716;2024-01-30T03:18:41;2;0;
46094;PMS5003;31832;50.746;-2.716;2024-01-30T03:21:06;0;0;
46094;PMS5003;31832;50.746;-2.716;2024-01-30T03:23:31;1;0;
46094;PMS5003;31832;50.746;-2.716;2024-01-30T03:25:56;0;0;
46094;PMS5003;31832;50.746;-2.716;2024-01-30T03:28:22;0;0;
46094;PMS5003;31832;50.746;-2.716;2024-01-30T03:30:47;0;0;
46094;PMS5003;31832;50.746;-2.716;2024-01-30T03:33:12;0;0;
46094;PMS5003;31832;50.746;-2.716;2024-01-30T03:35:37;1;0;
46094;PMS5003;31832;50.746;-2.716;2024-01-30T03:38:03;0;0;
46094;PMS5003;31832;50.746;-2.716;2024-01-30T03:40:28;0;0;
46094;PMS5003;31832;50.746;-2.716;2024-01-30T03:42:53;0;0;
46094;PMS5003;31832;50.746;-2.716;2024-01-30T03:47:43;0;0;
46094;PMS5003;31832;50.746;-2.716;2024-01-30T03:50:09;0;0;
46094;PMS5003;31832;50.746;-2.716;2024-01-30T03:52:34;0;0;
46094;PMS5003;31832;50.746;-2.716;2024-01-30T03:54:59;0;0;
46094;PMS5003;31832;50.746;-2.716;2024-01-30T03:57:24;0;0;
46094;PMS5003;31832;50.746;-2.716;2024-01-30T03:59:49;0;0;
46094;PMS5003;31832;50.746;-2.716;2024-01-30T04:02:15;0;0;
46094;PMS5003;31832;50.746;-2.716;2024-01-30T04:04:40;1;0;
46094;PMS5003;31832;50.746;-2.716;2024-01-30T04:07:05;0;0;
46094;PMS5003;31832;50.746;-2.716;2024-01-30T04:09:30;0;0;
46094;PMS5003;31832;50.746;-2.716;2024-01-30T04:11:56;1;1;
46094;PMS5003;31832;50.746;-2.716;2024-01-30T04:14:21;0;0;
46094;PMS5003;31832;50.746;-2.716;2024-01-30T04:16:46;1;1;
46094;PMS5003;31832;50.746;-2.716;2024-01-30T04:19:11;1;1;
46094;PMS5003;31832;50.746;-2.716;2024-01-30T04:21:36;2;1;
46094;PMS5003;31832;50.746;-2.716;2024-01-30T04:24:01;3;2;
46094;PMS5003;31832;50.746;-2.716;2024-01-30T04:26:27;5;2;
46094;PMS5003;31832;50.746;-2.716;2024-01-30T04:28:52;3;3;
46094;PMS5003;31832;50.746;-2.716;2024-01-30T04:31:17;4;1;
46094;PMS5003;31832;50.746;-2.716;2024-01-30T04:33:42;2;2;
46094;PMS5003;31832;50.746;-2.716;2024-01-30T04:36:08;3;3;
46094;PMS5003;31832;50.746;-2.716;2024-01-30T04:38:33;2;2;
46094;PMS5003;31832;50.746;-2.716;2024-01-30T04:40:58;5;3;
46094;PMS5003;31832;50.746;-2.716;2024-01-30T04:43:23;3;3;
46094;PMS5003;31832;50.746;-2.716;2024-01-30T04:45:49;4;3;
46094;PMS5003;31832;50.746;-2.716;2024-01-30T04:48:13;4;4;
46094;PMS5003;31832;50.746;-2.716;2024-01-30T04:50:39;6;6;
46094;PMS5003;31832;50.746;-2.716;2024-01-30T04:53:04;6;5;
46094;PMS5003;31832;50.746;-2.716;2024-01-30T04:55:29;6;5;
46094;PMS5003;31832;50.746;-2.716;2024-01-30T04:57:55;5;4;
46094;PMS5003;31832;50.746;-2.716;2024-01-30T05:00:20;5;4;
46094;PMS5003;31832;50.746;-2.716;2024-01-30T05:02:45;4;4;
46094;PMS5003;31832;50.746;-2.716;2024-01-30T05:05:10;4;4;
46094;PMS5003;31832;50.746;-2.716;2024-01-30T05:07:36;6;5;
46094;PMS5003;31832;50.746;-2.716;2024-01-30T05:10:01;7;7;
46094;PMS5003;31832;50.746;-2.716;2024-01-30T05:12:27;5;5;
46094;PMS5003;31832;50.746;-2.716;2024-01-30T05:14:51;5;5;
46094;PMS5003;31832;50.746;-2.716;2024-01-30T05:17:17;7;5;
46094;PMS5003;31832;50.746;-2.716;2024-01-30T05:19:42;7;7;
46094;PMS5003;31832;50.746;-2.716;2024-01-30T05:22:07;7;7;
46094;PMS5003;31832;50.746;-2.716;2024-01-30T05:24:33;9;8;
46094;PMS5003;31832;50.746;-2.716;2024-01-30T05:26:59;6;6;
46094;PMS5003;31832;50.746;-2.716;2024-01-30T05:29:24;8;7;
46094;PMS5003;31832;50.746;-2.716;2024-01-30T05:31:49;8;7;
46094;PMS5003;31832;50.746;-2.716;2024-01-30T05:34:14;7;6;
46094;PMS5003;31832;50.746;-2.716;2024-01-30T05:36:39;8;7;
46094;PMS5003;31832;50.746;-2.716;2024-01-30T05:39:05;7;6;
46094;PMS5003;31832;50.746;-2.716;2024-01-30T05:41:31;12;11;
46094;PMS5003;31832;50.746;-2.716;2024-01-30T05:43:56;9;9;
46094;PMS5003;31832;50.746;-2.716;2024-01-30T05:46:21;10;9;
46094;PMS5003;31832;50.746;-2.716;2024-01-30T05:48:46;12;9;
46094;PMS5003;31832;50.746;-2.716;2024-01-30T05:51:11;9;8;
46094;PMS5003;31832;50.746;-2.716;2024-01-30T05:53:36;8;8;
46094;PMS5003;31832;50.746;-2.716;2024-01-30T05:56:02;9;9;
46094;PMS5003;31832;50.746;-2.716;2024-01-30T05:58:27;8;8;
46094;PMS5003;31832;50.746;-2.716;2024-01-30T06:00:53;9;9;
46094;PMS5003;31832;50.746;-2.716;2024-01-30T06:03:18;13;11;
46094;PMS5003;31832;50.746;-2.716;2024-01-30T06:05:44;8;8;
46094;PMS5003;31832;50.746;-2.716;2024-01-30T06:08:09;11;10;
46094;PMS5003;31832;50.746;-2.716;2024-01-30T06:10:35;8;8;
46094;PMS5003;31832;50.746;-2.716;2024-01-30T06:13:00;13;12;
46094;PMS5003;31832;50.746;-2.716;2024-01-30T06:15:25;15;13;
46094;PMS5003;31832;50.746;-2.716;2024-01-30T06:17:51;14;12;
46094;PMS5003;31832;50.746;-2.716;2024-01-30T06:20:17;12;12;
46094;PMS5003;31832;50.746;-2.716;2024-01-30T06:22:42;10;10;
46094;PMS5003;31832;50.746;-2.716;2024-01-30T06:25:08;11;10;
46094;PMS5003;31832;50.746;-2.716;2024-01-30T06:27:34;10;10;
46094;PMS5003;31832;50.746;-2.716;2024-01-30T06:29:59;7;7;
46094;PMS5003;31832;50.746;-2.716;2024-01-30T06:32:25;12;10;
46094;PMS5003;31832;50.746;-2.716;2024-01-30T06:34:50;11;9;
46094;PMS5003;31832;50.746;-2.716;2024-01-30T06:37:15;8;8;
46094;PMS5003;31832;50.746;-2.716;2024-01-30T06:39:40;11;10;
46094;PMS5003;31832;50.746;-2.716;2024-01-30T06:42:06;10;10;
46094;PMS5003;31832;50.746;-2.716;2024-01-30T06:44:31;11;11;
46094;PMS5003;31832;50.746;-2.716;2024-01-30T06:46:57;19;17;
46094;PMS5003;31832;50.746;-2.716;2024-01-30T06:49:22;16;12;
46094;PMS5003;31832;50.746;-2.716;2024-01-30T06:51:48;11;11;
46094;PMS5003;31832;50.746;-2.716;2024-01-30T06:54:13;14;12;
46094;PMS5003;31832;50.746;-2.716;2024-01-30T06:56:38;13;12;
46094;PMS5003;31832;50.746;-2.716;2024-01-30T06:59:03;16;15;
46094;PMS5003;31832;50.746;-2.716;2024-01-30T07:01:29;16;16;
46094;PMS5003;31832;50.746;-2.716;2024-01-30T07:03:54;10;10;
46094;PMS5003;31832;50.746;-2.716;2024-01-30T07:06:19;14;11;
46094;PMS5003;31832;50.746;-2.716;2024-01-30T07:08:45;11;11;
46094;PMS5003;31832;50.746;-2.716;2024-01-30T07:11:10;12;11;
46094;PMS5003;31832;50.746;-2.716;2024-01-30T07:13:35;11;11;
46094;PMS5003;31832;50.746;-2.716;2024-01-30T07:16:01;11;11;
46094;PMS5003;31832;50.746;-2.716;2024-01-30T07:18:27;12;11;
46094;PMS5003;31832;50.746;-2.716;2024-01-30T07:20:52;11;10;
46094;PMS5003;31832;50.746;-2.716;2024-01-30T07:23:18;12;11;
46094;PMS5003;31832;50.746;-2.716;2024-01-30T07:25:43;16;14;
46094;PMS5003;31832;50.746;-2.716;2024-01-30T07:28:09;13;11;
46094;PMS5003;31832;50.746;-2.716;2024-01-30T07:30:35;16;11;
46094;PMS5003;31832;50.746;-2.716;2024-01-30T07:32:59;10;8;
46094;PMS5003;31832;50.746;-2.716;2024-01-30T07:35:25;12;10;
46094;PMS5003;31832;50.746;-2.716;2024-01-30T07:37:56;13;9;
46094;PMS5003;31832;50.746;-2.716;2024-01-30T07:40:17;11;9;
46094;PMS5003;31832;50.746;-2.716;2024-01-30T07:42:43;14;11;
46094;PMS5003;31832;50.746;-2.716;2024-01-30T07:45:09;10;10;
46094;PMS5003;31832;50.746;-2.716;2024-01-30T07:47:34;10;10;
46094;PMS5003;31832;50.746;-2.716;2024-01-30T07:49:59;9;7;
46094;PMS5003;31832;50.746;-2.716;2024-01-30T07:52:25;8;7;
46094;PMS5003;31832;50.746;-2.716;2024-01-30T07:54:50;9;8;
46094;PMS5003;31832;50.746;-2.716;2024-01-30T07:57:15;7;7;
46094;PMS5003;31832;50.746;-2.716;2024-01-30T07:59:41;9;8;
46094;PMS5003;31832;50.746;-2.716;2024-01-30T08:02:06;8;8;
46094;PMS5003;31832;50.746;-2.716;2024-01-30T08:04:31;6;6;
46094;PMS5003;31832;50.746;-2.716;2024-01-30T08:06:56;5;3;
46094;PMS5003;31832;50.746;-2.716;2024-01-30T08:09:22;7;6;
46094;PMS5003;31832;50.746;-2.716;2024-01-30T08:11:47;11;6;
46094;PMS5003;31832;50.746;-2.716;2024-01-30T08:14:12;9;6;
46094;PMS5003;31832;50.746;-2.716;2024-01-30T08:16:38;10;7;
46094;PMS5003;31832;50.746;-2.716;2024-01-30T08:19:03;8;6;
46094;PMS5003;31832;50.746;-2.716;2024-01-30T08:21:29;7;6;
46094;PMS5003;31832;50.746;-2.716;2024-01-30T08:23:54;7;7;
46094;PMS5003;31832;50.746;-2.716;2024-01-30T08:26:19;7;6;
46094;PMS5003;31832;50.746;-2.716;2024-01-30T08:28:44;7;7;
46094;PMS5003;31832;50.746;-2.716;2024-01-30T08:31:10;6;6;
46094;PMS5003;31832;50.746;-2.716;2024-01-30T08:33:35;7;5;
46094;PMS5003;31832;50.746;-2.716;2024-01-30T08:36:00;7;6;
46094;PMS5003;31832;50.746;-2.716;2024-01-30T08:38:25;6;6;
46094;PMS5003;31832;50.746;-2.716;2024-01-30T08:40:51;10;8;
46094;PMS5003;31832;50.746;-2.716;2024-01-30T08:43:16;6;6;
46094;PMS5003;31832;50.746;-2.716;2024-01-30T08:45:42;7;7;
46094;PMS5003;31832;50.746;-2.716;2024-01-30T08:48:07;7;7;
46094;PMS5003;31832;50.746;-2.716;2024-01-30T08:50:32;8;6;
46094;PMS5003;31832;50.746;-2.716;2024-01-30T08:52:57;8;7;
46094;PMS5003;31832;50.746;-2.716;2024-01-30T08:55:23;9;7;
46094;PMS5003;31832;50.746;-2.716;2024-01-30T08:57:48;12;8;
46094;PMS5003;31832;50.746;-2.716;2024-01-30T09:00:14;6;4;
46094;PMS5003;31832;50.746;-2.716;2024-01-30T09:02:39;8;7;
46094;PMS5003;31832;50.746;-2.716;2024-01-30T09:05:04;6;6;
46094;PMS5003;31832;50.746;-2.716;2024-01-30T09:07:29;8;5;
46094;PMS5003;31832;50.746;-2.716;2024-01-30T09:09:54;6;6;
46094;PMS5003;31832;50.746;-2.716;2024-01-30T09:12:20;5;5;
46094;PMS5003;31832;50.746;-2.716;2024-01-30T09:14:45;5;5;
46094;PMS5003;31832;50.746;-2.716;2024-01-30T09:17:11;8;6;
46094;PMS5003;31832;50.746;-2.716;2024-01-30T09:19:36;5;5;
46094;PMS5003;31832;50.746;-2.716;2024-01-30T09:22:01;5;4;
46094;PMS5003;31832;50.746;-2.716;2024-01-30T09:24:27;5;4;
46094;PMS5003;31832;50.746;-2.716;2024-01-30T09:26:52;7;6;
46094;PMS5003;31832;50.746;-2.716;2024-01-30T09:29:17;9;8;
46094;PMS5003;31832;50.746;-2.716;2024-01-30T09:31:42;15;10;
46094;PMS5003;31832;50.746;-2.716;2024-01-30T09:34:08;57;45;
46094;PMS5003;31832;50.746;-2.716;2024-01-30T09:36:33;97;81;
46094;PMS5003;31832;50.746;-2.716;2024-01-30T09:38:59;25;20;
46094;PMS5003;31832;50.746;-2.716;2024-01-30T09:41:24;16;13;
46094;PMS5003;31832;50.746;-2.716;2024-01-30T09:43:50;56;47;
46094;PMS5003;31832;50.746;-2.716;2024-01-30T09:46:16;44;35;
46094;PMS5003;31832;50.746;-2.716;2024-01-30T09:48:41;43;36;
46094;PMS5003;31832;50.746;-2.716;2024-01-30T09:51:06;29;24;
46094;PMS5003;31832;50.746;-2.716;2024-01-30T09:53:31;35;26;
46094;PMS5003;31832;50.746;-2.716;2024-01-30T09:55:57;26;24;
46094;PMS5003;31832;50.746;-2.716;2024-01-30T09:58:22;11;10;
46094;PMS5003;31832;50.746;-2.716;2024-01-30T10:00:47;19;15;
46094;PMS5003;31832;50.746;-2.716;2024-01-30T10:03:12;13;13;
46094;PMS5003;31832;50.746;-2.716;2024-01-30T10:05:39;14;11;
46094;PMS5003;31832;50.746;-2.716;2024-01-30T10:08:06;31;25;
46094;PMS5003;31832;50.746;-2.716;2024-01-30T10:10:28;26;25;
46094;PMS5003;31832;50.746;-2.716;2024-01-30T10:12:54;23;21;
46094;PMS5003;31832;50.746;-2.716;2024-01-30T10:15:20;14;13;
46094;PMS5003;31832;50.746;-2.716;2024-01-30T10:17:46;23;20;
46094;PMS5003;31832;50.746;-2.716;2024-01-30T10:20:12;15;12;
46094;PMS5003;31832;50.746;-2.716;2024-01-30T10:22:37;11;9;
46094;PMS5003;31832;50.746;-2.716;2024-01-30T10:25:02;6;5;
46094;PMS5003;31832;50.746;-2.716;2024-01-30T10:27:28;5;5;
46094;PMS5003;31832;50.746;-2.716;2024-01-30T10:29:53;7;6;
46094;PMS5003;31832;50.746;-2.716;2024-01-30T10:32:19;7;6;
46094;PMS5003;31832;50.746;-2.716;2024-01-30T10:34:43;6;3;
46094;PMS5003;31832;50.746;-2.716;2024-01-30T10:37:10;9;7;
46094;PMS5003;31832;50.746;-2.716;2024-01-30T10:39:35;6;6;
46094;PMS5003;31832;50.746;-2.716;2024-01-30T10:42:04;8;6;
46094;PMS5003;31832;50.746;-2.716;2024-01-30T10:44:25;5;5;
46094;PMS5003;31832;50.746;-2.716;2024-01-30T10:46:51;5;4;
46094;PMS5003;31832;50.746;-2.716;2024-01-30T10:49:15;8;8;
46094;PMS5003;31832;50.746;-2.716;2024-01-30T10:51:41;2;2;
46094;PMS5003;31832;50.746;-2.716;2024-01-30T10:54:07;4;4;
46094;PMS5003;31832;50.746;-2.716;2024-01-30T10:56:32;5;5;
46094;PMS5003;31832;50.746;-2.716;2024-01-30T10:58:57;3;3;
46094;PMS5003;31832;50.746;-2.716;2024-01-30T11:01:22;7;6;
46094;PMS5003;31832;50.746;-2.716;2024-01-30T11:03:48;6;6;
46094;PMS5003;31832;50.746;-2.716;2024-01-30T11:06:13;7;4;
46094;PMS5003;31832;50.746;-2.716;2024-01-30T11:08:38;6;5;
46094;PMS5003;31832;50.746;-2.716;2024-01-30T11:11:03;4;4;
46094;PMS5003;31832;50.746;-2.716;2024-01-30T11:13:29;6;3;
46094;PMS5003;31832;50.746;-2.716;2024-01-30T11:15:53;6;5;
46094;PMS5003;31832;50.746;-2.716;2024-01-30T11:18:24;5;5;
46094;PMS5003;31832;50.746;-2.716;2024-01-30T11:20:44;4;4;
46094;PMS5003;31832;50.746;-2.716;2024-01-30T11:23:09;4;3;
46094;PMS5003;31832;50.746;-2.716;2024-01-30T11:25:34;5;4;
46094;PMS5003;31832;50.746;-2.716;2024-01-30T11:27:59;4;4;
46094;PMS5003;31832;50.746;-2.716;2024-01-30T11:30:26;6;6;
46094;PMS5003;31832;50.746;-2.716;2024-01-30T11:32:59;5;5;
46094;PMS5003;31832;50.746;-2.716;2024-01-30T11:35:16;3;3;
46094;PMS5003;31832;50.746;-2.716;2024-01-30T11:37:41;7;5;
46094;PMS5003;31832;50.746;-2.716;2024-01-30T11:40:06;5;5;
46094;PMS5003;31832;50.746;-2.716;2024-01-30T11:42:32;11;9;
46094;PMS5003;31832;50.746;-2.716;2024-01-30T11:44:59;4;4;
46094;PMS5003;31832;50.746;-2.716;2024-01-30T11:47:23;6;6;
46094;PMS5003;31832;50.746;-2.716;2024-01-30T11:49:48;8;7;
46094;PMS5003;31832;50.746;-2.716;2024-01-30T11:52:13;11;7;
46094;PMS5003;31832;50.746;-2.716;2024-01-30T11:54:39;16;13;
46094;PMS5003;31832;50.746;-2.716;2024-01-30T11:57:04;15;10;
46094;PMS5003;31832;50.746;-2.716;2024-01-30T11:59:29;6;6;
46094;PMS5003;31832;50.746;-2.716;2024-01-30T12:01:54;6;6;
46094;PMS5003;31832;50.746;-2.716;2024-01-30T12:04:20;8;7;
46094;PMS5003;31832;50.746;-2.716;2024-01-30T12:06:45;7;7;
46094;PMS5003;31832;50.746;-2.716;2024-01-30T12:09:11;5;4;
46094;PMS5003;31832;50.746;-2.716;2024-01-30T12:14:01;5;5;
46094;PMS5003;31832;50.746;-2.716;2024-01-30T12:16:26;4;4;
46094;PMS5003;31832;50.746;-2.716;2024-01-30T12:21:17;5;4;
46094;PMS5003;31832;50.746;-2.716;2024-01-30T12:23:42;4;3;
46094;PMS5003;31832;50.746;-2.716;2024-01-30T12:26:07;5;5;
46094;PMS5003;31832;50.746;-2.716;2024-01-30T12:28:33;9;6;
46094;PMS5003;31832;50.746;-2.716;2024-01-30T12:31:01;5;5;
46094;PMS5003;31832;50.746;-2.716;2024-01-30T12:33:26;5;5;
46094;PMS5003;31832;50.746;-2.716;2024-01-30T12:35:49;7;5;
46094;PMS5003;31832;50.746;-2.716;2024-01-30T12:38:14;4;4;
46094;PMS5003;31832;50.746;-2.716;2024-01-30T12:40:40;4;4;
46094;PMS5003;31832;50.746;-2.716;2024-01-30T12:43:05;5;5;
46094;PMS5003;31832;50.746;-2.716;2024-01-30T12:45:30;9;5;
46094;PMS5003;31832;50.746;-2.716;2024-01-30T12:47:55;6;6;
46094;PMS5003;31832;50.746;-2.716;2024-01-30T12:50:20;6;5;
46094;PMS5003;31832;50.746;-2.716;2024-01-30T12:52:46;5;5;
46094;PMS5003;31832;50.746;-2.716;2024-01-30T12:55:11;6;4;
46094;PMS5003;31832;50.746;-2.716;2024-01-30T12:57:36;5;4;
46094;PMS5003;31832;50.746;-2.716;2024-01-30T13:00:02;5;5;
46094;PMS5003;31832;50.746;-2.716;2024-01-30T13:02:27;6;5;
46094;PMS5003;31832;50.746;-2.716;2024-01-30T13:04:52;4;4;
46094;PMS5003;31832;50.746;-2.716;2024-01-30T13:07:18;3;3;
46094;PMS5003;31832;50.746;-2.716;2024-01-30T13:09:43;6;5;
46094;PMS5003;31832;50.746;-2.716;2024-01-30T13:12:09;5;5;
46094;PMS5003;31832;50.746;-2.716;2024-01-30T13:14:34;5;4;
46094;PMS5003;31832;50.746;-2.716;2024-01-30T13:16:59;5;5;
46094;PMS5003;31832;50.746;-2.716;2024-01-30T13:19:25;4;4;
46094;PMS5003;31832;50.746;-2.716;2024-01-30T13:21:50;3;3;
46094;PMS5003;31832;50.746;-2.716;2024-01-30T13:24:15;3;3;
46094;PMS5003;31832;50.746;-2.716;2024-01-30T13:26:41;6;6;
46094;PMS5003;31832;50.746;-2.716;2024-01-30T13:29:06;3;3;
46094;PMS5003;31832;50.746;-2.716;2024-01-30T13:31:31;5;5;
46094;PMS5003;31832;50.746;-2.716;2024-01-30T13:33:56;3;3;
46094;PMS5003;31832;50.746;-2.716;2024-01-30T13:36:21;4;3;
46094;PMS5003;31832;50.746;-2.716;2024-01-30T13:38:46;6;2;
46094;PMS5003;31832;50.746;-2.716;2024-01-30T13:41:11;3;1;
46094;PMS5003;31832;50.746;-2.716;2024-01-30T13:43:37;2;2;
46094;PMS5003;31832;50.746;-2.716;2024-01-30T13:46:02;2;2;
46094;PMS5003;31832;50.746;-2.716;2024-01-30T13:48:27;4;2;
46094;PMS5003;31832;50.746;-2.716;2024-01-30T13:50:53;5;2;
46094;PMS5003;31832;50.746;-2.716;2024-01-30T13:53:18;7;4;
46094;PMS5003;31832;50.746;-2.716;2024-01-30T13:55:43;4;3;
46094;PMS5003;31832;50.746;-2.716;2024-01-30T13:58:08;1;1;
46094;PMS5003;31832;50.746;-2.716;2024-01-30T14:00:33;4;2;
46094;PMS5003;31832;50.746;-2.716;2024-01-30T14:02:59;4;1;
46094;PMS5003;31832;50.746;-2.716;2024-01-30T14:05:25;3;3;
46094;PMS5003;31832;50.746;-2.716;2024-01-30T14:07:49;2;2;
46094;PMS5003;31832;50.746;-2.716;2024-01-30T14:10:15;2;2;
46094;PMS5003;31832;50.746;-2.716;2024-01-30T14:12:39;3;3;
46094;PMS5003;31832;50.746;-2.716;2024-01-30T14:15:06;5;3;
46094;PMS5003;31832;50.746;-2.716;2024-01-30T14:17:30;9;5;
46094;PMS5003;31832;50.746;-2.716;2024-01-30T14:19:55;5;3;
46094;PMS5003;31832;50.746;-2.716;2024-01-30T14:22:21;6;4;
46094;PMS5003;31832;50.746;-2.716;2024-01-30T14:24:46;2;2;
46094;PMS5003;31832;50.746;-2.716;2024-01-30T14:27:11;3;3;
46094;PMS5003;31832;50.746;-2.716;2024-01-30T14:29:36;5;3;
46094;PMS5003;31832;50.746;-2.716;2024-01-30T14:32:01;2;2;
46094;PMS5003;31832;50.746;-2.716;2024-01-30T14:34:27;1;1;
46094;PMS5003;31832;50.746;-2.716;2024-01-30T14:36:52;4;3;
46094;PMS5003;31832;50.746;-2.716;2024-01-30T14:39:17;0;0;
46094;PMS5003;31832;50.746;-2.716;2024-01-30T14:41:43;0;0;
46094;PMS5003;31832;50.746;-2.716;2024-01-30T14:44:08;2;1;
46094;PMS5003;31832;50.746;-2.716;2024-01-30T14:46:33;3;1;
46094;PMS5003;31832;50.746;-2.716;2024-01-30T14:48:59;2;2;
46094;PMS5003;31832;50.746;-2.716;2024-01-30T14:51:23;2;2;
46094;PMS5003;31832;50.746;-2.716;2024-01-30T14:53:49;5;4;
46094;PMS5003;31832;50.746;-2.716;2024-01-30T14:56:14;2;2;
46094;PMS5003;31832;50.746;-2.716;2024-01-30T14:58:39;4;3;
46094;PMS5003;31832;50.746;-2.716;2024-01-30T15:01:05;3;3;
46094;PMS5003;31832;50.746;-2.716;2024-01-30T15:03:30;2;1;
46094;PMS5003;31832;50.746;-2.716;2024-01-30T15:05:55;1;1;
46094;PMS5003;31832;50.746;-2.716;2024-01-30T15:08:20;2;1;
46094;PMS5003;31832;50.746;-2.716;2024-01-30T15:10:45;4;3;
46094;PMS5003;31832;50.746;-2.716;2024-01-30T15:13:10;2;2;
46094;PMS5003;31832;50.746;-2.716;2024-01-30T15:15:36;2;2;
46094;PMS5003;31832;50.746;-2.716;2024-01-30T15:18:01;4;2;
46094;PMS5003;31832;50.746;-2.716;2024-01-30T15:20:26;3;2;
46094;PMS5003;31832;50.746;-2.716;2024-01-30T15:22:51;4;2;
46094;PMS5003;31832;50.746;-2.716;2024-01-30T15:25:16;2;2;
46094;PMS5003;31832;50.746;-2.716;2024-01-30T15:27:43;2;2;
46094;PMS5003;31832;50.746;-2.716;2024-01-30T15:30:07;4;3;
46094;PMS5003;31832;50.746;-2.716;2024-01-30T15:32:32;4;3;
46094;PMS5003;31832;50.746;-2.716;2024-01-30T15:34:59;2;2;
46094;PMS5003;31832;50.746;-2.716;2024-01-30T15:37:23;3;3;
46094;PMS5003;31832;50.746;-2.716;2024-01-30T15:39:48;3;2;
46094;PMS5003;31832;50.746;-2.716;2024-01-30T15:42:13;2;2;
46094;PMS5003;31832;50.746;-2.716;2024-01-30T15:44:38;2;2;
46094;PMS5003;31832;50.746;-2.716;2024-01-30T15:47:04;4;3;
46094;PMS5003;31832;50.746;-2.716;2024-01-30T15:49:29;2;2;
46094;PMS5003;31832;50.746;-2.716;2024-01-30T15:51:54;2;0;
46094;PMS5003;31832;50.746;-2.716;2024-01-30T15:54:19;2;2;
46094;PMS5003;31832;50.746;-2.716;2024-01-30T15:56:44;3;3;
46094;PMS5003;31832;50.746;-2.716;2024-01-30T15:59:10;2;2;
46094;PMS5003;31832;50.746;-2.716;2024-01-30T16:01:35;2;2;
46094;PMS5003;31832;50.746;-2.716;2024-01-30T16:04:00;2;2;
46094;PMS5003;31832;50.746;-2.716;2024-01-30T16:06:25;3;3;
46094;PMS5003;31832;50.746;-2.716;2024-01-30T16:08:50;5;3;
46094;PMS5003;31832;50.746;-2.716;2024-01-30T16:11:16;3;2;
46094;PMS5003;31832;50.746;-2.716;2024-01-30T16:13:41;2;2;
46094;PMS5003;31832;50.746;-2.716;2024-01-30T16:16:06;4;4;
46094;PMS5003;31832;50.746;-2.716;2024-01-30T16:18:31;4;4;
46094;PMS5003;31832;50.746;-2.716;2024-01-30T16:20:56;4;4;
46094;PMS5003;31832;50.746;-2.716;2024-01-30T16:23:22;4;4;
46094;PMS5003;31832;50.746;-2.716;2024-01-30T16:25:47;5;3;
46094;PMS5003;31832;50.746;-2.716;2024-01-30T16:28:13;4;4;
46094;PMS5003;31832;50.746;-2.716;2024-01-30T16:30:37;6;5;
46094;PMS5003;31832;50.746;-2.716;2024-01-30T16:33:03;6;5;
46094;PMS5003;31832;50.746;-2.716;2024-01-30T16:35:28;6;5;
46094;PMS5003;31832;50.746;-2.716;2024-01-30T16:37:53;4;4;
46094;PMS5003;31832;50.746;-2.716;2024-01-30T16:40:18;5;5;
46094;PMS5003;31832;50.746;-2.716;2024-01-30T16:42:44;6;6;
46094;PMS5003;31832;50.746;-2.716;2024-01-30T16:45:09;6;6;
46094;PMS5003;31832;50.746;-2.716;2024-01-30T16:47:34;4;4;
46094;PMS5003;31832;50.746;-2.716;2024-01-30T16:49:59;3;3;
46094;PMS5003;31832;50.746;-2.716;2024-01-30T16:52:24;4;4;
46094;PMS5003;31832;50.746;-2.716;2024-01-30T16:54:49;6;5;
46094;PMS5003;31832;50.746;-2.716;2024-01-30T16:57:15;5;5;
46094;PMS5003;31832;50.746;-2.716;2024-01-30T16:59:40;6;4;
46094;PMS5003;31832;50.746;-2.716;2024-01-30T17:02:05;4;4;
46094;PMS5003;31832;50.746;-2.716;2024-01-30T17:04:30;5;5;
46094;PMS5003;31832;50.746;-2.716;2024-01-30T17:06:55;6;5;
46094;PMS5003;31832;50.746;-2.716;2024-01-30T17:09:21;7;5;